Pagina principale
METAR-TAF:

METAR-TAF

Aeroporti :

Aeroporto di Deauville Saint-Gatien

Deauville, Francia

latitudine: 49-21-55N, longitudine: 000-09-16E, altezza: 146 m

Osservazione

Il bollettino è stato emesso 27 minuti fa, alle 17:00 UTC
Vento 12 kt da nord/nord-est, variando fra nord e est/nord-est
Temperature 21°C
Umidità 43%
Pressione 1018 hPa
Visibilità 10 km o più
nessuna nube inferiore a 1500 m e nessun cumulonembo

METAR: LFRG 311700Z AUTO 03012KT 360V060 CAVOK 21/08 Q1018

Ora: 19:27 (17:27 UTC)


TAF: mancante

Osservazioni e previsioni meteorologiche di più di 4000 aeroporti (messaggi METAR e TAF).

Le stazioni disponibili sono rappresentate dai dischi gialli e rossi sulla carta.

Puntare il mouse per vedere il nome della stazione.

Clicca sopra per visualizzare le osservazioni e previsioni meteorologiche.

Per cambiare la mappa : fare clic sui pulsanti verdi con una croce nera per ingrandire, il pulsante verde con un trattino per diminuire, o sulla freccia verde per le mappe adiacenti.


METAR-TAF: